Aviation Digital Data Service (ADDS)

Output produced by METARs form (0647 UTC 30 October 2020)
found at http://www.aviationweather.gov/metar/data/
 
Forecast for: UTDT (QURGHONTEPPA , TJ)
Text: TAF UTDT 300300Z 3004/3013 VRB02MPS 6000 FEW060 SCT100
Forecast period: 0400 to 1300 UTC 30 October 2020
Forecast type: FROM: standard forecast or significant change
Winds: variable direction winds at 5 MPH (4 knots; 2.1 m/s)
Visibility: 4 miles (6 km)
Ceiling: at least 12,000 feet AGL
Clouds: few clouds at 6000 feet AGL
scattered clouds at 10000 feet AGL
Weather: no significant weather forecast for this period
Text: TEMPO 3004/3005 3100 BR FU
Forecast period: 0400 to 0500 UTC 30 October 2020
Forecast type: TEMPORARY: The following changes expected for less than half the time period
Visibility: 1.93 miles (3.11 km)
Ceiling: unknown
Clouds: missing
Weather: BR FU  (mist, smoke)